Terminal Aerodrome Forecast
Issued by NWS Wichita, KS

Home | Current Version | Previous Version | Text Only | Print | Product List | Glossary On
Versions: 1 2 3 4 5 6 7 8 9 10 11 12 13 14 15 16 17 18 19 20 21 22 23 24 25 26 27 28 29 30
000
FTUS43 KICT 012339
TAFICT
TAF
KICT 012339Z 0200/0224 03005KT P6SM FEW025
     FM020800 VRB03KT 2SM BR BKN008
     FM021400 12006KT 5SM BR BKN014
     FM021600 14010KT P6SM SCT020 BKN250
     FM022100 16013KT 6SM HZ OVC020=

USA.gov is the U.S. government's official web portal to all federal, state and local government web resources and services.